Saturday, May 28, 2016
00:10 UTC
  |  Log In   |  Register Free
Airport Search:

Lewis University Airport
(KLOT)

Lewis University Airport Diagram
No Airport Diagram Available

FAA data valid effective Mar 31 2016 - May 26 2016 (unless otherwise noted).

 
 
 
 
 
 
 
 
 
 
 
 
 
 
Current Aviation Weather for KLOT

Weather Summary


The most recent METAR observation for LOT was updated at: 12:55 UTC
METAR for KLOT is not available. Closest METAR is for KJOT
KLOT  (most recent observation was updatred at 27:23 UTC)
272355Z AUTO 20014G22KT 10SM BKN044 BKN055 BKN120 27/16 A2982 RMK AO2 60001 T02710160 10282 20223

KJOT  (6.4 nm NE)   (most recent observation was updated at 27:23 UTC)
272355Z AUTO 20007G15KT 10SM BKN055 27/18 A2983 RMK AO2 60008 T02740184 10277 20230

KC09  (18.2 nm NE)   (most recent observation was updated at 27:23 UTC)
272355Z AUTO 19013G18KT 10SM SCT044 BKN055 27/17 A2981 RMK AO2 T02710172 10283 20262

TAF for KLOT is not available.
KMDW  (18.8 nm SW)   (most recent observation was updatred at 27:23 UTC)
272325Z 2800/2824 18011KT P6SM VCSH SCT040 BKN100 TEMPO 2802/2805 4SM SHRA BKN040 FM280600 18009KT P6SM SCT040 BKN200 FM281500 20014G20KT P6SM SCT040 BKN250


KDPA  (19.2 nm SE)   (most recent observation was updatred at 27:23 UTC)
272325Z 2800/2824 18010KT P6SM VCSH SCT040 BKN100 TEMPO 2803/2805 4SM SHRA BKN040 FM280600 18009KT P6SM SCT040 BKN200 FM281500 20014G20KT P6SM SCT040 BKN250


KORD  (23.9 nm SW)   (most recent observation was updatred at 27:23 UTC)
272325Z 2800/2906 18011KT P6SM VCSH SCT040 BKN100 TEMPO 2803/2805 4SM SHRA BKN040 FM280600 18009KT P6SM SCT040 BKN200 FM281500 20014G20KT P6SM SCT040 BKN250 FM290200 19011KT P6SM BKN250
GlobalAir.com is loading additional information.
 Current Weather at LOT
80.0 F° (26.5 C°)

South winds at 17.3 mph
Pressure:
29.81 in
Humidity:
55%
Wind:
South at 17.3 mph
Dew Point:
62.2 F° (16.8 C°)
Visibility:
10.00 mi
LOT NOAA Radar




Find All Airport Services Find A Hotel Find A Rental Car Find A Golf Course Find A Restaurant $100 Hamburger



Airport Weather Forecast for KLOT

Translated METAR for KLOT (2355 UTC)
METAR:
KLOT 272355Z AUTO 20014G22KT 10SM BKN044 BKN055 BKN120 27/16 A2982 RMK AO2 60001 T02710160 10282 20223
Conditions at:
KLOT (Lewis University, IL) observed 2355 UTC 27 May 2016
Temperature:
27°C (80.6°F)
Dewpoint:
16°C (60.8°F) [RH = 51]
Pressure:
29.82 inches Hg (1009.8 mb)
Winds:
from the SSW (200 degrees) at 16.1 mph (14 knots: 7.2 m/s)
gusting to 25.3 mph (22 knots: 11.3 m/s)
Visibility:
10 mile(s)
Ceiling:
4,400 feet AGL
Clouds:
Broken Cloud Cover at 4,400 feet AGL
Broken Cloud Cover at 5,500 feet AGL
Broken Cloud Cover at 12,000 feet AGL
Remarks:
site is un-manned
site is automated and HAS a precipitation sensor

Translated TAF for KMDW (Chicago Midway Intl, IL) (2325 UTC)
TAF text:
KMDW 272325Z 2800/2824 18011KT P6SM VCSH SCT040 BKN100
Forecast period:
Saturday May 28 2016 00:00 UTC - Saturday May 28 2016 24:00 UTC
Forecast type:
FROM: standard forecast or significant change
Winds:
from the S (180 degrees) at 12.7 mph (11 knots: 5.7 m/s)
Visibility:
6 or more mile(s) (9.7+ km)
Ceiling:
10,000 feet AGL
Clouds:
Scattered Clouds at 4,000 feet AGL
Broken Cloud Cover at 10,000 feet AGL
Weather:
Moderate In Vicinity Shower(s)
TAF text:
2802/2805 4SM SHRA BKN040
Forecast period:
Sunday May 29 2016 02:00 UTC - Sunday May 29 2016 05:00 UTC
Forecast type:
FROM: standard forecast or significant change
Winds:
Visibility:
4 mile(s) (6.4 km)
Ceiling:
4,000 feet AGL
Clouds:
Broken Cloud Cover at 4,000 feet AGL
Weather:
Moderate Shower(s) Rain
TAF text:
FM280600 18009KT P6SM SCT040 BKN200
Forecast period:
Saturday May 28 2016 06:00 UTC - Saturday May 28 2016 15:00 UTC
Forecast type:
FROM: standard forecast or significant change
Winds:
from the S (180 degrees) at 10.4 mph (9 knots: 4.6 m/s)
Visibility:
6 or more mile(s) (9.7+ km)
Ceiling:
20,000 feet AGL
Clouds:
Scattered Clouds at 4,000 feet AGL
Broken Cloud Cover at 20,000 feet AGL
Weather:
no significant weather observed at this time
TAF text:
FM281500 20014G20KT P6SM SCT040 BKN250
Forecast period:
Saturday May 28 2016 15:00 UTC - Saturday May 28 2016 24:00 UTC
Forecast type:
FROM: standard forecast or significant change
Winds:
from the SSW (200 degrees) at 16.1 mph (14 knots: 7.2 m/s)
gusting to 23 mph (20 knots: 10.3 m/s)
Visibility:
6 or more mile(s) (9.7+ km)
Ceiling:
25,000 feet AGL
Clouds:
Scattered Clouds at 4,000 feet AGL
Broken Cloud Cover at 25,000 feet AGL
Weather:
no significant weather observed at this time
FBO's on the Field
FBO Company Facility Photos Services Transportation Aviation Fuel Prices: Prices include tax
Catering Weather Repair Courtesy Rental Type 100LL JetA JetA+ MOGAS 8087
 
Lewis University Airport

This FBO has not yet been rated
FS:Phillips 66
Last Updated: May-18
Login to update fuel prices
SS:
Contact Lewis University AirportMore FBO Information
 
Add another FBO Facility Photos Catering Weather Repair Courtesy Rental Type 100LL JetA JetA+ MOGAS 8087
Services Transportation Aviation Fuel Prices: Prices include tax


model-print
model-print
model-print
model-print